createdAt,value
2019-05-10T06:16:51.392Z,6.70
2019-05-10T06:19:36.882Z,5.25
2019-05-10T06:22:14.655Z,4.60
2019-05-10T06:24:52.363Z,4.33
2019-05-10T06:27:30.069Z,4.10
2019-05-10T06:36:32.028Z,7.25
2019-05-10T06:39:19.524Z,6.78
2019-05-10T06:41:55.992Z,5.40
2019-05-10T06:44:31.131Z,5.28
2019-05-10T06:47:28.187Z,5.12
2019-05-10T06:50:08.644Z,7.90
2019-05-10T06:52:51.948Z,6.62
2019-05-10T06:55:30.681Z,4.10
2019-05-10T06:58:09.222Z,8.15
2019-05-10T07:00:45.609Z,4.65
2019-05-10T07:03:17.116Z,5.83
2019-05-10T07:05:55.318Z,4.37
2019-05-10T07:08:44.396Z,5.05
2019-05-10T07:11:14.558Z,4.03
2019-05-10T07:13:59.302Z,4.90
2019-05-10T07:16:32.113Z,4.40
2019-05-10T07:19:09.644Z,4.30
2019-05-10T07:21:50.791Z,4.67
2019-05-10T07:24:36.464Z,4.10
2019-05-10T07:27:16.949Z,6.15
2019-05-10T07:29:53.463Z,5.15
2019-05-10T07:32:33.311Z,3.67
2019-05-10T07:35:13.951Z,5.60
2019-05-10T07:37:53.106Z,4.20
2019-05-10T07:40:36.486Z,4.33
2019-05-10T07:43:09.268Z,4.85
2019-05-10T07:45:46.204Z,4.92
2019-05-10T07:48:23.259Z,6.33
2019-05-10T07:51:02.290Z,5.60
2019-05-10T07:53:57.022Z,4.62
2019-05-10T07:56:30.439Z,6.03
2019-05-10T07:59:27.957Z,4.50
2019-05-10T08:01:59.535Z,4.07
2019-05-10T08:07:14.342Z,4.42
2019-05-10T08:09:48.789Z,4.72
2019-05-10T08:12:21.073Z,5.97
2019-05-10T08:15:24.732Z,4.00
2019-05-10T08:17:59.500Z,4.33
2019-05-10T08:20:50.347Z,4.87
2019-05-10T08:23:23.746Z,4.53
2019-05-10T08:25:58.281Z,5.75
2019-05-10T08:28:37.847Z,4.10
2019-05-10T08:31:14.551Z,7.00
2019-05-10T08:33:58.731Z,5.55
2019-05-10T08:36:45.864Z,4.42
2019-05-10T08:39:22.360Z,2.85
2019-05-10T08:42:03.898Z,5.50
2019-05-10T08:44:32.700Z,4.78
2019-05-10T08:47:07.750Z,4.03
2019-05-10T08:50:06.042Z,3.25
2019-05-10T08:52:33.967Z,4.83
2019-05-10T08:55:12.636Z,4.37
2019-05-10T08:57:53.611Z,6.15
2019-05-10T09:00:41.501Z,5.62
2019-05-10T09:03:18.559Z,6.20
2019-05-10T09:05:52.609Z,4.22
2019-05-10T09:08:34.703Z,3.52
2019-05-10T09:11:12.337Z,3.45
2019-05-10T09:13:46.161Z,3.98
2019-05-10T09:19:04.622Z,4.33
2019-05-10T09:21:40.981Z,2.72
2019-05-10T09:26:52.826Z,2.60
2019-05-10T09:29:33.023Z,2.05
2019-05-10T09:32:06.187Z,5.53
2019-05-10T09:34:42.803Z,2.80
2019-05-10T09:37:18.003Z,4.12
2019-05-10T09:39:55.476Z,4.50
2019-05-10T09:42:37.405Z,3.42
2019-05-10T09:45:13.065Z,5.37
2019-05-10T09:47:47.359Z,1.90
2019-05-10T09:50:30.365Z,2.98
2019-05-10T09:53:07.349Z,5.25
2019-05-10T09:55:55.213Z,4.17
2019-05-10T09:58:34.139Z,3.35
2019-05-10T10:01:21.753Z,3.95
2019-05-10T10:04:02.124Z,3.25
2019-05-10T10:06:48.267Z,4.55
2019-05-10T10:12:28.875Z,3.17
2019-05-10T10:15:10.692Z,3.08
2019-05-10T10:17:54.653Z,2.70
2019-05-10T10:20:36.111Z,2.75
2019-05-10T10:23:13.264Z,2.75
2019-05-10T10:25:48.399Z,3.30
2019-05-10T10:28:31.213Z,3.27
2019-05-10T10:31:05.455Z,3.22
2019-05-10T10:33:38.823Z,3.90
2019-05-10T10:36:11.419Z,3.42
2019-05-10T10:38:45.713Z,3.77
2019-05-10T10:43:58.123Z,2.65
2019-05-10T10:46:34.673Z,4.08
2019-05-10T10:49:32.380Z,4.33
2019-05-10T10:52:11.256Z,2.90
2019-05-10T10:54:47.978Z,4.22
2019-05-10T10:57:22.440Z,5.30
2019-05-10T10:59:57.488Z,4.62
2019-05-10T11:02:46.948Z,3.42
2019-05-10T11:05:24.061Z,3.15
2019-05-10T11:08:01.212Z,2.72
2019-05-10T11:10:40.486Z,3.05
2019-05-10T11:13:44.896Z,3.67
2019-05-10T11:16:15.537Z,6.80
2019-05-10T11:18:51.731Z,4.92
2019-05-10T11:21:41.534Z,3.62
2019-05-10T11:27:23.097Z,2.47
2019-05-10T11:30:00.959Z,4.37
2019-05-10T11:32:57.515Z,2.37
2019-05-10T11:35:34.226Z,5.05
2019-05-10T11:38:16.089Z,3.98
2019-05-10T11:40:49.404Z,2.77
2019-05-10T11:43:37.025Z,2.85
2019-05-10T11:46:15.469Z,3.20
2019-05-10T11:49:01.781Z,3.30
2019-05-10T11:51:47.961Z,2.83
2019-05-10T11:54:26.118Z,3.55
2019-05-10T11:59:05.080Z,3.15
2019-05-10T11:59:51.327Z,4.22
2019-05-10T12:05:20.524Z,4.28
2019-05-10T12:08:02.263Z,4.10
2019-05-10T12:10:52.777Z,2.83
2019-05-10T12:13:25.911Z,4.40
2019-05-10T12:16:16.159Z,2.62
2019-05-10T12:19:06.839Z,5.65
2019-05-10T12:21:37.628Z,2.83
2019-05-10T12:26:15.807Z,3.30
2019-05-10T12:26:27.297Z,3.47
2019-05-10T12:27:24.861Z,3.05
2019-05-10T12:29:41.473Z,4.00
2019-05-10T12:32:14.307Z,3.55
2019-05-10T12:34:58.420Z,3.67
2019-05-10T12:37:39.536Z,2.33
2019-05-10T12:40:28.270Z,5.47
2019-05-10T12:43:07.010Z,2.87
2019-05-10T12:45:46.521Z,3.25
2019-05-10T12:48:36.027Z,3.55
2019-05-10T12:51:25.152Z,1.60
2019-05-10T12:54:07.127Z,2.65
2019-05-10T12:56:50.829Z,3.25
2019-05-10T12:59:36.629Z,3.30
2019-05-10T13:02:15.978Z,5.55
2019-05-10T13:06:19.606Z,3.90
2019-05-10T13:09:02.114Z,4.40
2019-05-10T13:11:43.154Z,3.25
2019-05-10T13:14:28.809Z,3.87
2019-05-10T13:17:03.880Z,5.87
2019-05-10T13:19:44.505Z,3.65
2019-05-10T13:22:22.996Z,4.03
2019-05-10T13:25:03.220Z,2.60
2019-05-10T13:27:56.064Z,2.47
2019-05-10T13:30:34.325Z,2.70
2019-05-10T13:36:30.567Z,2.42
2019-05-10T13:39:25.259Z,4.92
2019-05-10T13:42:05.140Z,3.45
2019-05-10T13:44:49.789Z,3.17
2019-05-10T13:47:31.784Z,2.55
2019-05-10T13:52:53.525Z,2.58
2019-05-10T13:58:35.295Z,4.12
2019-05-10T14:01:19.732Z,2.45
2019-05-10T14:04:03.518Z,2.60
2019-05-10T14:06:45.550Z,2.50
2019-05-10T14:15:14.819Z,2.00
2019-05-10T14:17:58.743Z,2.85
2019-05-10T14:20:39.503Z,2.35
2019-05-10T14:23:35.219Z,3.27
2019-05-10T14:26:29.828Z,3.35
2019-05-10T14:29:33.380Z,6.85
2019-05-10T14:32:17.546Z,3.62
2019-05-10T14:34:57.862Z,3.90
2019-05-10T14:37:39.286Z,2.90
2019-05-10T14:40:27.812Z,2.75
2019-05-10T14:46:13.539Z,2.47
2019-05-10T14:49:09.805Z,1.75
2019-05-10T14:51:58.399Z,4.03
2019-05-10T14:54:23.836Z,2.42
2019-05-10T14:57:04.255Z,2.00
2019-05-10T15:02:44.484Z,2.17
2019-05-10T15:05:26.572Z,1.98
2019-05-10T15:08:15.907Z,2.75
2019-05-10T15:11:01.832Z,2.55
2019-05-10T15:13:49.711Z,2.55
2019-05-10T15:19:36.779Z,2.42
2019-05-10T15:22:23.103Z,2.75
2019-05-10T15:25:06.210Z,3.22
2019-05-10T15:27:45.694Z,2.42
2019-05-10T15:30:53.802Z,2.37
2019-05-10T15:33:34.732Z,3.45
2019-05-10T15:39:05.350Z,2.60
2019-05-10T15:41:59.564Z,2.77
2019-05-10T15:44:49.268Z,4.47
2019-05-10T15:47:31.908Z,3.62
2019-05-10T15:53:28.038Z,2.17
2019-05-10T16:02:25.914Z,2.75
2019-05-10T16:05:22.237Z,3.37
2019-05-10T16:07:51.546Z,2.30
2019-05-10T16:10:43.332Z,2.90
2019-05-10T16:16:19.554Z,4.35
2019-05-10T16:19:01.799Z,2.27
2019-05-10T16:21:46.696Z,1.87
2019-05-10T16:24:28.231Z,1.90
2019-05-10T16:27:02.900Z,4.03
2019-05-10T16:29:43.539Z,2.70
2019-05-10T16:32:29.202Z,2.83
2019-05-10T16:35:12.930Z,4.28
2019-05-10T16:37:56.669Z,1.85
2019-05-10T16:40:56.822Z,3.58
2019-05-10T16:43:29.067Z,5.05
2019-05-10T16:46:13.103Z,3.25
2019-05-10T16:51:42.405Z,2.02
2019-05-10T16:54:25.209Z,4.17
2019-05-10T16:57:22.775Z,1.87
2019-05-10T17:00:08.302Z,2.42
2019-05-10T17:02:43.789Z,2.70
2019-05-10T17:05:20.933Z,3.50
2019-05-10T17:08:03.773Z,3.87
2019-05-10T17:13:14.492Z,2.52
2019-05-10T17:15:58.067Z,3.87
2019-05-10T17:18:34.781Z,3.02
2019-05-10T17:21:09.628Z,2.00
2019-05-10T17:26:32.487Z,4.97
2019-05-10T17:29:18.152Z,5.12
2019-05-10T17:31:56.468Z,2.72
2019-05-10T17:34:36.761Z,3.80
2019-05-10T17:37:11.325Z,2.77
2019-05-10T17:39:45.331Z,3.35
2019-05-10T17:42:24.409Z,2.25
2019-05-10T17:45:01.826Z,2.83
2019-05-10T17:47:36.424Z,3.17
2019-05-10T17:50:14.161Z,2.33
2019-05-10T17:52:49.322Z,1.82
2019-05-10T17:55:25.406Z,3.47
2019-05-10T17:57:58.700Z,4.92
2019-05-10T18:00:34.970Z,4.55
2019-05-10T18:03:13.217Z,4.25
2019-05-10T18:05:51.213Z,2.20
2019-05-10T18:08:22.047Z,3.10
2019-05-10T18:10:57.359Z,3.62
2019-05-10T18:13:42.630Z,4.42
2019-05-10T18:16:17.074Z,4.70
2019-05-10T18:18:53.505Z,3.20
2019-05-10T18:21:25.513Z,2.60
2019-05-10T18:23:59.824Z,3.92
2019-05-10T18:26:34.261Z,3.50
2019-05-10T18:29:06.501Z,2.40
2019-05-10T18:31:40.303Z,2.22
2019-05-10T18:34:12.372Z,3.12
2019-05-10T18:36:52.402Z,3.22
2019-05-10T18:39:21.796Z,3.17
2019-05-10T18:41:56.993Z,2.67
2019-05-10T18:44:29.747Z,6.10
2019-05-10T18:47:06.821Z,4.12
2019-05-10T18:49:40.816Z,5.05
2019-05-10T18:52:21.647Z,5.22
2019-05-10T18:55:00.504Z,4.30
2019-05-10T18:57:39.561Z,5.10
2019-05-10T19:00:23.235Z,4.30
2019-05-10T19:03:05.134Z,4.15
2019-05-10T19:05:48.961Z,3.75
2019-05-10T19:08:34.247Z,7.75
2019-05-10T19:11:14.817Z,4.97
2019-05-10T19:13:54.638Z,3.22
2019-05-10T19:16:34.361Z,4.17
2019-05-10T19:19:11.103Z,5.55
2019-05-10T19:21:53.204Z,5.78
2019-05-10T19:24:30.308Z,4.83
2019-05-10T19:27:07.282Z,5.65
2019-05-10T19:33:17.720Z,5.30
2019-05-10T19:35:57.814Z,4.20
2019-05-10T19:38:33.261Z,8.38
2019-05-10T19:41:12.207Z,5.62
2019-05-10T19:44:10.789Z,6.85
2019-05-10T19:46:52.017Z,6.35
2019-05-10T19:50:03.204Z,7.97
2019-05-10T19:52:39.817Z,9.73
2019-05-10T19:56:54.928Z,7.62
2019-05-10T19:59:48.573Z,6.25
2019-05-10T20:02:27.902Z,9.08
2019-05-10T20:05:05.143Z,10.30
2019-05-10T20:07:59.817Z,7.75
2019-05-10T20:10:41.955Z,10.03
2019-05-10T20:13:21.327Z,7.67
2019-05-10T20:16:01.082Z,6.87
2019-05-10T20:18:36.679Z,6.87
2019-05-10T20:21:11.095Z,5.72
2019-05-10T20:26:27.476Z,5.37
2019-05-10T20:29:03.143Z,5.95
2019-05-10T20:31:39.228Z,5.87
2019-05-10T20:34:14.226Z,5.08
2019-05-10T20:36:49.184Z,6.40
2019-05-10T20:39:27.414Z,9.28
2019-05-10T20:42:01.838Z,6.78
2019-05-10T20:45:12.644Z,8.85
2019-05-10T20:48:04.421Z,7.75
2019-05-10T20:50:41.943Z,8.73
2019-05-10T20:53:31.500Z,7.22
2019-05-10T20:58:58.052Z,8.83
2019-05-10T21:01:49.212Z,9.15
2019-05-10T21:04:24.688Z,6.33
2019-05-10T21:07:04.927Z,7.40
2019-05-10T21:09:38.064Z,8.73
2019-05-10T21:12:12.036Z,7.45
2019-05-10T21:14:45.796Z,6.75
2019-05-10T21:17:20.165Z,5.05
2019-05-10T21:19:52.563Z,7.40
2019-05-10T21:22:25.501Z,6.40
2019-05-10T21:24:57.849Z,7.17
2019-05-10T21:27:31.962Z,5.70
2019-05-10T21:32:45.059Z,7.97
2019-05-10T21:35:18.358Z,7.05
2019-05-10T21:37:51.601Z,5.47
2019-05-10T21:40:23.912Z,7.77
2019-05-10T21:45:40.623Z,4.92
2019-05-10T21:51:10.174Z,4.87
2019-05-10T21:53:58.739Z,5.70
2019-05-10T21:56:37.493Z,4.70
2019-05-10T21:59:11.277Z,4.83
2019-05-10T22:01:51.949Z,8.20
2019-05-10T22:04:37.552Z,6.15
2019-05-10T22:07:14.040Z,6.22
2019-05-10T22:10:09.263Z,6.17
2019-05-10T22:12:54.985Z,6.03
2019-05-10T22:15:32.958Z,6.00
2019-05-10T22:21:11.643Z,8.33
2019-05-10T22:23:43.626Z,5.60
2019-05-10T22:26:22.861Z,4.53
2019-05-10T22:29:01.019Z,9.13
2019-05-10T22:31:35.522Z,4.53
2019-05-10T22:34:26.861Z,6.50
2019-05-10T22:37:02.939Z,4.40
2019-05-10T22:39:36.756Z,7.20
2019-05-10T22:42:10.628Z,7.33
2019-05-10T22:44:54.165Z,4.75
2019-05-10T22:47:26.679Z,4.83
2019-05-10T22:50:00.962Z,7.10
2019-05-10T22:52:33.808Z,5.45
2019-05-10T22:55:07.134Z,6.33
2019-05-10T22:57:42.446Z,6.05
2019-05-10T23:00:18.463Z,5.20
2019-05-10T23:02:52.985Z,6.95
2019-05-10T23:05:25.747Z,5.17
2019-05-10T23:07:59.330Z,4.42
2019-05-10T23:10:56.961Z,4.00
2019-05-10T23:13:30.307Z,4.90
2019-05-10T23:16:07.395Z,7.42
2019-05-10T23:21:46.062Z,3.72
